Aviation Digital Data Service (ADDS)

Output produced by METARs form (1314 UTC 08 May 2021)
found at http://aviationweather.gov/metar/data/
 
KNEW 081120Z 0812/0912 11007KT P6SM FEW250 
     FM081800 15012G21KT P6SM FEW250 
     FM091000 18009KT P6SM FEW030